Flight Track Log - Related Links

Times and Time Zones

All times are in EDT time to prevent confusion due to time zone crossing. See the EJA831 flight status page for this flight to view local times or setup timezone preferences in your user account.

Time Position Orientation Groundspeed Altitude Reporting Facility
EDT Latitude Longitude Course Direction KTS MPH feet Rate Location/Type
Sun 04:41:32 PM 41.3147 -95.9061 27° Northeast 165 190 1,700  Level Minneapolis Center
Sun 04:41:51 PM 41.3281 -95.8972 27° Northeast 199 229 2,400 3,000 Climbing Minneapolis Center
Sun 04:42:32 PM 41.3422 -95.8447 70° East 249 287 4,700 2,951 Climbing Minneapolis Center
Sun 04:42:52 PM 41.3397 -95.8175 97° East 246 283 5,400 3,146 Climbing Minneapolis Center
Sun 04:43:54 PM 41.3372 -95.7175 92° East 257 296 9,000 3,339 Climbing Minneapolis Center
Sun 04:44:56 PM 41.3353 -95.6108 91° East 272 313 12,300 2,855 Climbing Minneapolis Center
Sun 04:45:58 PM 41.2850 -95.5392 133° Southeast 281 323 14,900 2,098 Climbing Minneapolis Center
Sun 04:46:59 PM 41.2114 -95.4928 155° Southeast 287 330 16,600 2,634 Climbing Minneapolis Center
Sun 04:48:01 PM 41.1433 -95.3933 132° Southeast 309 356 20,300 2,903 Climbing Minneapolis Center
Sun 04:49:03 PM 41.0919 -95.2928 124° Southeast 319 367 22,600 2,049 Climbing Minneapolis Center
Sun 04:50:04 PM 41.0364 -95.1914 126° Southeast 330 380 24,500 1,561 Climbing Minneapolis Center
Sun 04:51:06 PM 40.9483 -95.1625 166° South 328 377 25,800 1,258 Climbing Minneapolis Center
Sun 04:52:08 PM 40.8583 -95.1392 169° South 328 377 27,100 1,452 Climbing Minneapolis Center
Sun 04:53:10 PM 40.7669 -95.1147 169° South 332 382 28,800 1,556 Climbing Minneapolis Center
Sun 04:54:23 PM 40.6756 -95.0908 169° South 334 384 30,600 1,867 Climbing Minneapolis Center
Sun 04:55:25 PM 40.5706 -95.0647 169° South 326 375 33,000 2,032 Climbing Minneapolis Center
Sun 04:56:27 PM 40.4683 -95.0372 168° South 315 362 34,800 1,412 Climbing Minneapolis Center
Sun 04:57:41 PM 40.3833 -95.0164 169° South 312 359 36,200 971 Climbing Minneapolis Center
Sun 04:58:43 PM 40.2825 -94.9889 168° South 308 354 37,000 390 Climbing Minneapolis Center
Sun 04:59:44 PM 40.1892 -94.9647 169° South 327 376 37,000 142 Level Minneapolis Center
Sun 05:00:50 PM 40.0919 -94.9414 170° South 347 399 37,300 766 Climbing Minneapolis Center
Sun 05:01:18 PM 40.0439 -94.9281 168° South 348 400 38,200 1,133 Climbing Kansas City Center
Sun 05:02:20 PM 39.9417 -94.9028 169° South 334 384 39,000 532 Climbing Kansas City Center
Sun 05:03:22 PM 39.8492 -94.8789 169° South 350 403 39,300 484 Climbing Kansas City Center
Sun 05:04:24 PM 39.7419 -94.8639 174° South 345 397 40,000 339 Climbing Kansas City Center
Sun 05:05:26 PM 39.6517 -94.8908 193° South 346 398 40,000  Level Kansas City Center
Sun 05:06:27 PM 39.5422 -94.9200 192° South 355 409 40,000  Level Kansas City Center
Sun 05:07:29 PM 39.4481 -94.9458 192° South 359 413 40,000 387 Level Kansas City Center
Sun 05:08:31 PM 39.3550 -94.9706 192° South 354 407 40,800 919 Climbing Kansas City Center
Sun 05:09:33 PM 39.2500 -94.9989 192° South 340 391 41,900 1,016 Climbing Kansas City Center
Sun 05:10:35 PM 39.1625 -95.0219 192° South 333 383 42,900 532 Climbing Kansas City Center
Sun 05:11:37 PM 39.0597 -95.0489 192° South 334 384 43,000 48 Climbing Kansas City Center
Sun 05:12:39 PM 38.9681 -95.0739 192° South 346 398 43,000  Level Kansas City Center
Sun 05:13:41 PM 38.8731 -95.0992 192° South 358 412 43,000  Level Kansas City Center
Sun 05:14:43 PM 38.7608 -95.1292 192° South 366 421 43,000  Level Kansas City Center
Sun 05:15:44 PM 38.6625 -95.1553 192° South 373 429 43,000  Level Kansas City Center
Sun 05:16:46 PM 38.5486 -95.1856 192° South 375 432 43,000  Level Kansas City Center
Sun 05:17:48 PM 38.4492 -95.2128 192° South 379 436 43,000  Level Kansas City Center
Sun 05:18:51 PM 38.3331 -95.2431 192° South 379 436 43,000  Level Kansas City Center
Sun 05:19:52 PM 38.2322 -95.2694 192° South 382 440 43,000  Level Kansas City Center
Sun 05:20:54 PM 38.1125 -95.2997 191° South 390 449 43,000  Level Kansas City Center
Sun 05:21:56 PM 38.0114 -95.3272 192° South 388 447 43,000  Level Kansas City Center
Sun 05:22:58 PM 37.9033 -95.3556 192° South 385 443 43,000  Level Kansas City Center
Sun 05:24:00 PM 37.7981 -95.3814 191° South 385 443 43,000  Level Kansas City Center
Sun 05:25:02 PM 37.6936 -95.4081 191° South 384 442 43,000  Level Kansas City Center
Sun 05:26:03 PM 37.5869 -95.4356 192° South 388 447 43,000  Level Kansas City Center
Sun 05:27:05 PM 37.4597 -95.4678 191° South 388 447 43,000  Level Kansas City Center
Sun 05:28:07 PM 37.3533 -95.4956 192° South 390 449 43,000  Level Kansas City Center
Sun 05:29:09 PM 37.2489 -95.5225 192° South 385 443 43,000  Level Kansas City Center
Sun 05:30:11 PM 37.1419 -95.5500 192° South 390 449 43,000  Level Kansas City Center
Sun 05:31:13 PM 37.0361 -95.5764 191° South 389 448 43,000  Level Kansas City Center
Sun 05:32:15 PM 36.9297 -95.6039 192° South 390 449 43,000  Level Kansas City Center
Sun 05:33:17 PM 36.8025 -95.6353 191° South 389 448 43,000  Level Kansas City Center
Sun 05:34:18 PM 36.6969 -95.6631 192° South 389 448 43,000  Level Kansas City Center
Sun 05:35:20 PM 36.5978 -95.6883 192° South 391 450 43,000  Level Kansas City Center
Sun 05:36:22 PM 36.4903 -95.7142 191° South 392 451 43,000  Level Kansas City Center
Sun 05:37:24 PM 36.3828 -95.7403 191° South 393 452 43,000  Level Kansas City Center
Sun 05:38:26 PM 36.2722 -95.7683 192° South 393 452 43,000  Level Kansas City Center
Sun 05:39:28 PM 36.1439 -95.8053 193° South 396 456 43,000  Level Kansas City Center
Sun 05:40:29 PM 36.0389 -95.8419 196° South 395 455 43,000  Level Kansas City Center
Sun 05:41:31 PM 35.9333 -95.8786 196° South 394 453 43,000  Level Kansas City Center
Sun 05:42:33 PM 35.8281 -95.9144 195° South 393 452 43,000  Level Kansas City Center
Sun 05:43:35 PM 35.7219 -95.9517 196° South 395 455 43,000  Level Kansas City Center
Sun 05:44:37 PM 35.6172 -95.9883 196° South 392 451 43,000  Level Kansas City Center
Sun 05:45:38 PM 35.4931 -96.0306 195° South 388 447 43,000  Level Kansas City Center
Sun 05:46:40 PM 35.3875 -96.0678 196° South 389 448 43,000  Level Kansas City Center
Sun 05:47:42 PM 35.2808 -96.1044 196° South 395 455 43,000  Level Kansas City Center
Sun 05:48:45 PM 35.1683 -96.1436 196° South 401 461 43,000  Level Fort Worth Center
Sun 05:49:45 PM 35.0603 -96.1833 197° South 401 461 43,000  Level Fort Worth Center
Sun 05:50:45 PM 34.9522 -96.2178 195° South 401 461 43,000  Level Fort Worth Center
Sun 05:51:45 PM 34.8419 -96.2547 195° South 401 461 43,000  Level Fort Worth Center
Sun 05:52:45 PM 34.7317 -96.2917 195° South 406 467 43,000  Level Fort Worth Center
Sun 05:53:45 PM 34.6214 -96.3308 196° South 411 473 43,000  Level Fort Worth Center
Sun 05:54:45 PM 34.5111 -96.3703 196° South 411 473 43,000  Level Fort Worth Center
Sun 05:55:45 PM 34.4008 -96.4067 195° South 411 473 43,000  Level Fort Worth Center
Sun 05:56:45 PM 34.2822 -96.4458 195° South 411 473 43,000  Level Fort Worth Center
Sun 05:57:45 PM 34.1742 -96.4847 197° South 411 473 43,000  Level Fort Worth Center
Sun 05:58:45 PM 34.0825 -96.5158 196° South 411 473 43,000  Level Fort Worth Center
Sun 05:59:45 PM 33.9722 -96.5494 194° South 400 460 43,000  Level Fort Worth Center
Sun 06:00:45 PM 33.8639 -96.5856 195° South 400 460 43,000  Level Fort Worth Center
Sun 06:01:45 PM 33.7556 -96.6239 196° South 400 460 43,000  Level Fort Worth Center
Sun 06:02:45 PM 33.6472 -96.6575 194° South 395 455 43,000  Level Fort Worth Center
Sun 06:03:45 PM 33.5389 -96.6933 195° South 395 455 43,000  Level Fort Worth Center
Sun 06:04:45 PM 33.4286 -96.7264 194° South 395 455 43,000  Level Fort Worth Center
Sun 06:05:45 PM 33.3203 -96.7647 196° South 400 460 43,000  Level Fort Worth Center
Sun 06:06:45 PM 33.2117 -96.7978 194° South 400 460 43,000  Level Fort Worth Center
Sun 06:07:45 PM 33.1014 -96.8331 195° South 400 460 43,000  Level Fort Worth Center
Sun 06:08:45 PM 32.9806 -96.8761 197° South 410 472 43,000  Level Fort Worth Center
Sun 06:09:45 PM 32.8761 -96.9014 191° South 415 478 43,000  Level Fort Worth Center
Sun 06:10:45 PM 32.7592 -96.8947 177° South 420 483 43,000  Level Fort Worth Center
Sun 06:11:45 PM 32.6403 -96.8881 177° South 425 489 43,000  Level Fort Worth Center
Sun 06:12:45 PM 32.5128 -96.8814 177° South 425 489 43,000  Level Fort Worth Center
Sun 06:13:45 PM 32.3917 -96.8769 178° South 420 483 43,000  Level Fort Worth Center
Sun 06:14:45 PM 32.2747 -96.8703 177° South 425 489 43,000  Level Fort Worth Center
Sun 06:15:45 PM 32.1558 -96.8636 177° South 425 489 43,000  Level Fort Worth Center
Sun 06:16:45 PM 32.0367 -96.8569 177° South 425 489 43,000  Level Fort Worth Center
Sun 06:17:45 PM 31.9219 -96.8528 178° South 419 482 43,000 -800 Level Fort Worth Center
Sun 06:18:45 PM 31.8028 -96.8439 176° South 424 488 41,400 -1,800 Descending Fort Worth Center
Sun 06:19:45 PM 31.6858 -96.8347 176° South 424 488 39,400 -1,818 Descending Fort Worth Center
Sun 06:20:57 PM 31.5689 -96.8158 172° South 424 488 37,400 -1,521 Descending Fort Worth Center
Sun 06:22:07 PM 31.4114 -96.7906 172° South 425 489 35,800 -1,727 Descending Houston Center
Sun 06:23:09 PM 31.2875 -96.7697 172° South 439 505 33,600 -2,032 Descending Houston Center
Sun 06:24:11 PM 31.1658 -96.7489 172° South 437 503 31,600 -1,935 Descending Houston Center
Sun 06:25:13 PM 31.0450 -96.7300 172° South 433 498 29,600 -1,984 Descending Houston Center
Sun 06:26:15 PM 30.9208 -96.7122 173° South 439 505 27,500 -1,984 Descending Houston Center
Sun 06:27:17 PM 30.8014 -96.6928 172° South 428 493 25,500 -2,032 Descending Houston Center
Sun 06:28:19 PM 30.6867 -96.6658 169° South 419 482 23,300 -2,177 Descending Houston Center
Sun 06:29:21 PM 30.5944 -96.5772 140° Southeast 422 486 21,000 -2,419 Descending Houston Center
Sun 06:30:23 PM 30.4917 -96.4811 141° Southeast 403 464 18,300 -2,371 Descending Houston Center
Sun 06:31:25 PM 30.4081 -96.4006 140° Southeast 388 447 16,100 -2,032 Descending Houston Center
Sun 06:32:27 PM 30.3289 -96.3242 140° Southeast 367 422 14,100 -2,000 Descending Houston Center
Sun 06:32:55 PM 30.2881 -96.2858 141° Southeast 353 406 13,100 -1,839 Descending Houston Center
Sun 06:33:29 PM 30.2536 -96.2508 139° Southeast 348 400 12,200 -1,701 Descending Houston Center
Sun 06:34:02 PM 30.2128 -96.2147 143° Southeast 324 373 11,200 -1,161 Descending Houston Center
Sun 06:34:31 PM 30.1789 -96.1911 149° Southeast 325 374 11,000 -179 Descending Houston Center
Sun 06:35:09 PM 30.1158 -96.1603 157° South 338 389 11,000 -97 Level Houston Center
Sun 06:35:33 PM 30.0956 -96.1467 150° Southeast 337 388 10,900  Descending Houston Center
Sun 06:36:10 PM 30.0297 -96.1122 156° South 340 391 11,000  Climbing Houston Center
Sun 06:36:35 PM 30.0092 -96.1022 157° South 339 390 10,900  Descending Houston Center
Sun 06:37:11 PM 29.9400 -96.0669 156° South 338 389 11,000  Climbing Houston Center
Sun 06:37:37 PM 29.9064 -96.0472 153° Southeast 337 388 10,900  Descending Houston Center
Sun 06:38:12 PM 29.8542 -96.0211 157° South 336 387 11,000 97 Climbing Houston Center
Sun 06:38:39 PM 29.8269 -96.0061 154° Southeast 336 387 11,000  Level Houston Center
Sun 06:39:14 PM 29.7747 -95.9772 154° Southeast 292 336 11,000  Level Houston Center
Sun 06:39:41 PM 29.7531 -95.9606 146° Southeast 311 358 11,000 -537 Level Houston Center
Sun 06:40:21 PM 29.7000 -95.9139 143° Southeast 300 345 10,400 -871 Descending Houston Center
Sun 06:40:43 PM 29.6878 -95.9031 142° Southeast 297 342 10,100 -1,964 Descending Houston Center
Sun 06:41:16 PM 29.6389 -95.8631 145° Southeast 292 336 8,600 -2,419 Descending Houston Center
Sun 06:41:45 PM 29.6128 -95.8350 137° Southeast 286 329 7,600 -2,073 Descending Houston Center
Sun 06:42:11 PM 29.5953 -95.7983 119° Southeast 269 310 6,700 -1,548 Descending Houston Center
Sun 06:42:47 PM 29.5878 -95.7567 102° East 276 318 6,000 -618 Descending Houston Center
Sun 06:43:19 PM 29.6067 -95.7131 64° Northeast 265 305 6,000  Level Houston Center
Sun 06:43:49 PM 29.6172 -95.6794 70° East 271 312 6,000  Level Houston Center
Sun 06:44:14 PM 29.6297 -95.6408 70° East 267 307 6,000 -290 Level Houston Center
Sun 06:44:51 PM 29.6403 -95.6022 73° East 259 298 5,700 -1,254 Descending Houston Center
Sun 06:45:21 PM 29.6539 -95.5608 69° East 223 257 4,600 -1,645 Descending Houston Center
Sun 06:45:53 PM 29.6619 -95.5350 70° East 231 266 4,000 -1,065 Descending Houston Center
Sun 06:46:23 PM 29.6750 -95.4911 71° East 223 257 3,500 -1,258 Descending Houston Center
Sun 06:46:55 PM 29.6842 -95.4686 65° Northeast 225 259 2,700 -1,343 Descending Houston Center
Sun 06:47:30 PM 29.7000 -95.4208 69° East 217 250 2,000 -677 Descending Houston Center
Sun 06:47:57 PM 29.7092 -95.3936 69° East 215 247 2,000  Level Houston Center
Sun 06:48:31 PM 29.7117 -95.3642 84° East 158 182 2,000 -194 Level Houston Center
Sun 06:48:59 PM 29.7014 -95.3458 123° Southeast 185 213 1,800 -750 Descending Houston Center
Sun 06:49:27 PM 29.6872 -95.3286 133° Southeast 142 163 1,300 -968 Descending Houston Center
Sun 06:50:01 PM 29.6756 -95.3144 133° Southeast 156 180 800 -688 Descending Houston Center
Sun 06:51:03 PM 29.6556 -95.2914 135° Southeast 127 146 200 -581 Descending Houston Center
Sun 06:53:00 PM 29.6454 -95.2789 115° Southeast  Level Estimated

Login

Don't have an account? Register now (free) for customized features, flight alerts, and more!